sensor_id;sensor_type;location;lat;lon;timestamp;temperature;humidity
37786;DHT22;23625;48.784;9.336;2023-07-31T00:00:45;14.50;99.90
37786;DHT22;23625;48.784;9.336;2023-07-31T00:03:11;14.50;99.90
37786;DHT22;23625;48.784;9.336;2023-07-31T00:05:37;14.40;99.90
37786;DHT22;23625;48.784;9.336;2023-07-31T00:08:03;14.40;99.90
37786;DHT22;23625;48.784;9.336;2023-07-31T00:10:28;14.30;99.90
37786;DHT22;23625;48.784;9.336;2023-07-31T00:12:54;14.30;99.90
37786;DHT22;23625;48.784;9.336;2023-07-31T00:15:19;14.30;99.90
37786;DHT22;23625;48.784;9.336;2023-07-31T00:17:45;14.20;99.90
37786;DHT22;23625;48.784;9.336;2023-07-31T00:20:11;14.10;99.90
37786;DHT22;23625;48.784;9.336;2023-07-31T00:22:36;14.00;99.90
37786;DHT22;23625;48.784;9.336;2023-07-31T00:25:02;13.90;99.90
37786;DHT22;23625;48.784;9.336;2023-07-31T00:27:27;13.90;99.90
37786;DHT22;23625;48.784;9.336;2023-07-31T00:29:53;13.80;99.90
37786;DHT22;23625;48.784;9.336;2023-07-31T00:32:19;13.80;99.90
37786;DHT22;23625;48.784;9.336;2023-07-31T00:34:44;13.70;99.90
37786;DHT22;23625;48.784;9.336;2023-07-31T00:37:10;13.70;99.90
37786;DHT22;23625;48.784;9.336;2023-07-31T00:39:35;13.70;99.90
37786;DHT22;23625;48.784;9.336;2023-07-31T00:42:01;13.60;99.90
37786;DHT22;23625;48.784;9.336;2023-07-31T00:44:27;13.60;99.90
37786;DHT22;23625;48.784;9.336;2023-07-31T00:46:52;13.60;99.90
37786;DHT22;23625;48.784;9.336;2023-07-31T00:49:18;13.60;99.90
37786;DHT22;23625;48.784;9.336;2023-07-31T00:51:45;13.60;99.90
37786;DHT22;23625;48.784;9.336;2023-07-31T00:54:11;13.70;99.90
37786;DHT22;23625;48.784;9.336;2023-07-31T00:56:36;13.70;99.90
37786;DHT22;23625;48.784;9.336;2023-07-31T00:59:03;13.80;99.90
37786;DHT22;23625;48.784;9.336;2023-07-31T01:01:28;13.80;99.90
37786;DHT22;23625;48.784;9.336;2023-07-31T01:03:54;13.90;99.90
37786;DHT22;23625;48.784;9.336;2023-07-31T01:06:48;14.00;99.90
37786;DHT22;23625;48.784;9.336;2023-07-31T01:09:40;14.00;99.90
37786;DHT22;23625;48.784;9.336;2023-07-31T01:12:09;14.00;99.90
37786;DHT22;23625;48.784;9.336;2023-07-31T01:14:38;14.00;99.90
37786;DHT22;23625;48.784;9.336;2023-07-31T01:17:04;13.90;99.90
37786;DHT22;23625;48.784;9.336;2023-07-31T01:19:29;13.90;99.90
37786;DHT22;23625;48.784;9.336;2023-07-31T01:22:27;13.90;99.90
37786;DHT22;23625;48.784;9.336;2023-07-31T01:27:44;13.80;99.90
37786;DHT22;23625;48.784;9.336;2023-07-31T01:30:16;13.80;99.90
37786;DHT22;23625;48.784;9.336;2023-07-31T01:32:43;13.80;99.90
37786;DHT22;23625;48.784;9.336;2023-07-31T01:35:11;13.70;99.90
37786;DHT22;23625;48.784;9.336;2023-07-31T01:37:36;13.70;99.90
37786;DHT22;23625;48.784;9.336;2023-07-31T01:40:03;13.70;99.90
37786;DHT22;23625;48.784;9.336;2023-07-31T01:42:29;13.70;99.90
37786;DHT22;23625;48.784;9.336;2023-07-31T01:44:55;13.70;99.90
37786;DHT22;23625;48.784;9.336;2023-07-31T01:47:20;13.70;99.90
37786;DHT22;23625;48.784;9.336;2023-07-31T01:49:46;13.60;99.90
37786;DHT22;23625;48.784;9.336;2023-07-31T01:52:11;13.70;99.90
37786;DHT22;23625;48.784;9.336;2023-07-31T01:54:37;13.70;99.90
37786;DHT22;23625;48.784;9.336;2023-07-31T01:57:03;13.70;99.90
37786;DHT22;23625;48.784;9.336;2023-07-31T01:59:28;13.70;99.90
37786;DHT22;23625;48.784;9.336;2023-07-31T02:01:54;13.70;99.90
37786;DHT22;23625;48.784;9.336;2023-07-31T02:04:20;13.80;99.90
37786;DHT22;23625;48.784;9.336;2023-07-31T02:06:45;13.80;99.90
37786;DHT22;23625;48.784;9.336;2023-07-31T02:09:11;13.70;99.90
37786;DHT22;23625;48.784;9.336;2023-07-31T02:11:36;13.70;99.90
37786;DHT22;23625;48.784;9.336;2023-07-31T02:14:02;13.60;99.90
37786;DHT22;23625;48.784;9.336;2023-07-31T02:16:27;13.60;99.90
37786;DHT22;23625;48.784;9.336;2023-07-31T02:18:53;13.60;99.90
37786;DHT22;23625;48.784;9.336;2023-07-31T02:21:19;13.60;99.90
37786;DHT22;23625;48.784;9.336;2023-07-31T02:23:44;13.60;99.90
37786;DHT22;23625;48.784;9.336;2023-07-31T02:26:10;13.70;99.90
37786;DHT22;23625;48.784;9.336;2023-07-31T02:28:36;13.70;99.90
37786;DHT22;23625;48.784;9.336;2023-07-31T02:31:01;13.70;99.90
37786;DHT22;23625;48.784;9.336;2023-07-31T02:33:27;13.70;99.90
37786;DHT22;23625;48.784;9.336;2023-07-31T02:35:52;13.70;99.90
37786;DHT22;23625;48.784;9.336;2023-07-31T02:38:18;13.70;99.90
37786;DHT22;23625;48.784;9.336;2023-07-31T02:40:44;13.70;99.90
37786;DHT22;23625;48.784;9.336;2023-07-31T02:43:10;13.70;99.90
37786;DHT22;23625;48.784;9.336;2023-07-31T02:45:35;13.70;99.90
37786;DHT22;23625;48.784;9.336;2023-07-31T02:48:01;13.70;99.90
37786;DHT22;23625;48.784;9.336;2023-07-31T02:50:26;13.70;99.90
37786;DHT22;23625;48.784;9.336;2023-07-31T02:52:54;13.60;99.90
37786;DHT22;23625;48.784;9.336;2023-07-31T02:55:19;13.60;99.90
37786;DHT22;23625;48.784;9.336;2023-07-31T02:57:45;13.50;99.90
37786;DHT22;23625;48.784;9.336;2023-07-31T03:00:10;13.50;99.90
37786;DHT22;23625;48.784;9.336;2023-07-31T03:02:36;13.40;99.90
37786;DHT22;23625;48.784;9.336;2023-07-31T03:05:02;13.40;99.90
37786;DHT22;23625;48.784;9.336;2023-07-31T03:07:27;13.40;99.90
37786;DHT22;23625;48.784;9.336;2023-07-31T03:09:54;13.40;99.90
37786;DHT22;23625;48.784;9.336;2023-07-31T03:12:19;13.40;99.90
37786;DHT22;23625;48.784;9.336;2023-07-31T03:14:45;13.50;99.90
37786;DHT22;23625;48.784;9.336;2023-07-31T03:17:11;13.60;99.90
37786;DHT22;23625;48.784;9.336;2023-07-31T03:19:37;13.60;99.90
37786;DHT22;23625;48.784;9.336;2023-07-31T03:22:03;13.70;99.90
37786;DHT22;23625;48.784;9.336;2023-07-31T03:24:29;13.70;99.90
37786;DHT22;23625;48.784;9.336;2023-07-31T03:26:55;13.80;99.90
37786;DHT22;23625;48.784;9.336;2023-07-31T03:29:20;13.80;99.90
37786;DHT22;23625;48.784;9.336;2023-07-31T03:31:46;13.70;99.90
37786;DHT22;23625;48.784;9.336;2023-07-31T03:34:11;13.60;99.90
37786;DHT22;23625;48.784;9.336;2023-07-31T03:36:37;13.60;99.90
37786;DHT22;23625;48.784;9.336;2023-07-31T03:39:03;13.60;99.90
37786;DHT22;23625;48.784;9.336;2023-07-31T03:41:28;13.60;99.90
37786;DHT22;23625;48.784;9.336;2023-07-31T03:43:54;13.60;99.90
37786;DHT22;23625;48.784;9.336;2023-07-31T03:46:23;13.70;99.90
37786;DHT22;23625;48.784;9.336;2023-07-31T03:48:49;13.80;99.90
37786;DHT22;23625;48.784;9.336;2023-07-31T03:51:15;13.80;99.90
37786;DHT22;23625;48.784;9.336;2023-07-31T03:53:41;13.90;99.90
37786;DHT22;23625;48.784;9.336;2023-07-31T03:56:06;14.00;99.90
37786;DHT22;23625;48.784;9.336;2023-07-31T03:58:32;14.00;99.90
37786;DHT22;23625;48.784;9.336;2023-07-31T04:00:57;14.10;99.90
37786;DHT22;23625;48.784;9.336;2023-07-31T04:03:23;14.00;99.90
37786;DHT22;23625;48.784;9.336;2023-07-31T04:05:48;14.00;99.90
37786;DHT22;23625;48.784;9.336;2023-07-31T04:08:14;14.10;99.90
37786;DHT22;23625;48.784;9.336;2023-07-31T04:10:40;14.10;99.90
37786;DHT22;23625;48.784;9.336;2023-07-31T04:13:05;14.10;99.90
37786;DHT22;23625;48.784;9.336;2023-07-31T04:15:31;14.20;99.90
37786;DHT22;23625;48.784;9.336;2023-07-31T04:17:56;14.20;99.90
37786;DHT22;23625;48.784;9.336;2023-07-31T04:20:22;14.20;99.90
37786;DHT22;23625;48.784;9.336;2023-07-31T04:22:48;14.30;99.90
37786;DHT22;23625;48.784;9.336;2023-07-31T04:25:14;14.40;99.90
37786;DHT22;23625;48.784;9.336;2023-07-31T04:27:40;14.40;99.90
37786;DHT22;23625;48.784;9.336;2023-07-31T04:30:06;14.50;99.90
37786;DHT22;23625;48.784;9.336;2023-07-31T04:32:32;14.60;99.90
37786;DHT22;23625;48.784;9.336;2023-07-31T04:34:57;14.60;99.90
37786;DHT22;23625;48.784;9.336;2023-07-31T04:37:23;14.70;99.90
37786;DHT22;23625;48.784;9.336;2023-07-31T04:39:48;14.70;99.90
37786;DHT22;23625;48.784;9.336;2023-07-31T04:42:14;14.70;99.90
37786;DHT22;23625;48.784;9.336;2023-07-31T04:44:39;14.50;99.90
37786;DHT22;23625;48.784;9.336;2023-07-31T04:47:05;14.70;99.90
37786;DHT22;23625;48.784;9.336;2023-07-31T04:49:32;14.70;99.90
37786;DHT22;23625;48.784;9.336;2023-07-31T04:51:57;14.70;99.90
37786;DHT22;23625;48.784;9.336;2023-07-31T04:54:23;14.80;99.90
37786;DHT22;23625;48.784;9.336;2023-07-31T04:56:49;14.80;99.90
37786;DHT22;23625;48.784;9.336;2023-07-31T04:59:14;14.90;99.90
37786;DHT22;23625;48.784;9.336;2023-07-31T05:01:40;14.90;99.90
37786;DHT22;23625;48.784;9.336;2023-07-31T05:04:05;15.00;99.90
37786;DHT22;23625;48.784;9.336;2023-07-31T05:06:31;14.90;99.90
37786;DHT22;23625;48.784;9.336;2023-07-31T05:08:56;15.00;99.90
37786;DHT22;23625;48.784;9.336;2023-07-31T05:11:22;15.00;99.90
37786;DHT22;23625;48.784;9.336;2023-07-31T05:13:48;15.10;99.90
37786;DHT22;23625;48.784;9.336;2023-07-31T05:16:13;15.10;99.90
37786;DHT22;23625;48.784;9.336;2023-07-31T05:18:39;15.10;99.90
37786;DHT22;23625;48.784;9.336;2023-07-31T05:21:04;15.20;99.90
37786;DHT22;23625;48.784;9.336;2023-07-31T05:23:30;15.30;99.90
37786;DHT22;23625;48.784;9.336;2023-07-31T05:26:06;15.40;99.90
37786;DHT22;23625;48.784;9.336;2023-07-31T05:28:33;15.50;99.90
37786;DHT22;23625;48.784;9.336;2023-07-31T05:31:00;15.50;99.90
37786;DHT22;23625;48.784;9.336;2023-07-31T05:33:26;15.50;99.90
37786;DHT22;23625;48.784;9.336;2023-07-31T05:35:52;15.50;99.90
37786;DHT22;23625;48.784;9.336;2023-07-31T05:38:17;15.50;99.90
37786;DHT22;23625;48.784;9.336;2023-07-31T05:40:43;15.60;99.90
37786;DHT22;23625;48.784;9.336;2023-07-31T05:43:09;15.60;99.90
37786;DHT22;23625;48.784;9.336;2023-07-31T05:45:35;15.60;99.90
37786;DHT22;23625;48.784;9.336;2023-07-31T05:48:00;15.70;99.90
37786;DHT22;23625;48.784;9.336;2023-07-31T05:50:26;15.80;99.90
37786;DHT22;23625;48.784;9.336;2023-07-31T05:52:51;15.90;99.90
37786;DHT22;23625;48.784;9.336;2023-07-31T05:55:17;16.10;99.90
37786;DHT22;23625;48.784;9.336;2023-07-31T05:57:43;16.10;99.90
37786;DHT22;23625;48.784;9.336;2023-07-31T06:00:11;16.20;99.90
37786;DHT22;23625;48.784;9.336;2023-07-31T06:02:37;16.30;99.90
37786;DHT22;23625;48.784;9.336;2023-07-31T06:05:04;16.40;99.90
37786;DHT22;23625;48.784;9.336;2023-07-31T06:07:31;16.40;99.90
37786;DHT22;23625;48.784;9.336;2023-07-31T06:09:57;16.50;99.90
37786;DHT22;23625;48.784;9.336;2023-07-31T06:12:28;16.60;99.90
37786;DHT22;23625;48.784;9.336;2023-07-31T06:14:54;16.60;99.90
37786;DHT22;23625;48.784;9.336;2023-07-31T06:17:19;16.70;99.90
37786;DHT22;23625;48.784;9.336;2023-07-31T06:19:45;16.70;99.90
37786;DHT22;23625;48.784;9.336;2023-07-31T06:22:10;16.80;99.90
37786;DHT22;23625;48.784;9.336;2023-07-31T06:24:36;16.90;99.90
37786;DHT22;23625;48.784;9.336;2023-07-31T06:27:02;17.00;99.90
37786;DHT22;23625;48.784;9.336;2023-07-31T06:29:29;17.20;99.90
37786;DHT22;23625;48.784;9.336;2023-07-31T06:31:55;17.40;99.90
37786;DHT22;23625;48.784;9.336;2023-07-31T06:34:21;17.50;99.90
37786;DHT22;23625;48.784;9.336;2023-07-31T06:36:46;17.60;99.90
37786;DHT22;23625;48.784;9.336;2023-07-31T06:39:12;17.70;99.90
37786;DHT22;23625;48.784;9.336;2023-07-31T06:41:38;17.80;99.90
37786;DHT22;23625;48.784;9.336;2023-07-31T06:44:03;17.80;99.90
37786;DHT22;23625;48.784;9.336;2023-07-31T06:46:29;17.90;99.90
37786;DHT22;23625;48.784;9.336;2023-07-31T06:48:55;18.00;99.90
37786;DHT22;23625;48.784;9.336;2023-07-31T06:51:20;18.00;99.90
37786;DHT22;23625;48.784;9.336;2023-07-31T06:53:46;17.90;99.90
37786;DHT22;23625;48.784;9.336;2023-07-31T06:56:12;18.00;99.90
37786;DHT22;23625;48.784;9.336;2023-07-31T06:58:38;18.00;99.90
37786;DHT22;23625;48.784;9.336;2023-07-31T07:01:03;18.20;99.90
37786;DHT22;23625;48.784;9.336;2023-07-31T07:03:29;18.30;99.90
37786;DHT22;23625;48.784;9.336;2023-07-31T07:05:55;18.40;99.90
37786;DHT22;23625;48.784;9.336;2023-07-31T07:08:20;18.50;99.90
37786;DHT22;23625;48.784;9.336;2023-07-31T07:10:46;18.60;99.90
37786;DHT22;23625;48.784;9.336;2023-07-31T07:13:12;18.70;99.90
37786;DHT22;23625;48.784;9.336;2023-07-31T07:15:38;18.90;99.90
37786;DHT22;23625;48.784;9.336;2023-07-31T07:18:04;18.90;99.90
37786;DHT22;23625;48.784;9.336;2023-07-31T07:20:30;19.00;99.90
37786;DHT22;23625;48.784;9.336;2023-07-31T07:22:55;19.10;99.40
37786;DHT22;23625;48.784;9.336;2023-07-31T07:25:21;19.10;97.40
37786;DHT22;23625;48.784;9.336;2023-07-31T07:27:46;19.20;95.90
37786;DHT22;23625;48.784;9.336;2023-07-31T07:30:12;19.40;96.70
37786;DHT22;23625;48.784;9.336;2023-07-31T07:32:39;19.50;91.60
37786;DHT22;23625;48.784;9.336;2023-07-31T07:35:05;19.70;90.50
37786;DHT22;23625;48.784;9.336;2023-07-31T07:37:31;19.60;90.40
37786;DHT22;23625;48.784;9.336;2023-07-31T07:39:57;19.70;91.90
37786;DHT22;23625;48.784;9.336;2023-07-31T07:42:23;19.80;90.90
37786;DHT22;23625;48.784;9.336;2023-07-31T07:44:48;19.80;91.00
37786;DHT22;23625;48.784;9.336;2023-07-31T07:47:14;20.00;85.10
37786;DHT22;23625;48.784;9.336;2023-07-31T07:49:39;19.90;87.60
37786;DHT22;23625;48.784;9.336;2023-07-31T07:52:05;20.00;84.80
37786;DHT22;23625;48.784;9.336;2023-07-31T07:54:31;19.90;88.70
37786;DHT22;23625;48.784;9.336;2023-07-31T07:56:57;19.90;89.50
37786;DHT22;23625;48.784;9.336;2023-07-31T07:59:22;19.80;88.20
37786;DHT22;23625;48.784;9.336;2023-07-31T08:01:48;19.70;87.90
37786;DHT22;23625;48.784;9.336;2023-07-31T08:04:13;19.70;90.40
37786;DHT22;23625;48.784;9.336;2023-07-31T08:06:39;19.80;90.90
37786;DHT22;23625;48.784;9.336;2023-07-31T08:09:05;19.80;92.10
37786;DHT22;23625;48.784;9.336;2023-07-31T08:11:32;19.80;91.60
37786;DHT22;23625;48.784;9.336;2023-07-31T08:13:58;19.90;91.90
37786;DHT22;23625;48.784;9.336;2023-07-31T08:16:23;20.00;92.10
37786;DHT22;23625;48.784;9.336;2023-07-31T08:18:49;20.20;92.80
37786;DHT22;23625;48.784;9.336;2023-07-31T08:21:15;20.20;86.40
37786;DHT22;23625;48.784;9.336;2023-07-31T08:23:40;20.20;84.10
37786;DHT22;23625;48.784;9.336;2023-07-31T08:26:06;20.20;82.30
37786;DHT22;23625;48.784;9.336;2023-07-31T08:28:32;20.20;80.80
37786;DHT22;23625;48.784;9.336;2023-07-31T08:30:57;20.30;81.60
37786;DHT22;23625;48.784;9.336;2023-07-31T08:33:23;20.40;84.30
37786;DHT22;23625;48.784;9.336;2023-07-31T08:35:49;20.50;76.50
37786;DHT22;23625;48.784;9.336;2023-07-31T08:38:14;20.60;81.20
37786;DHT22;23625;48.784;9.336;2023-07-31T08:40:40;20.70;77.40
37786;DHT22;23625;48.784;9.336;2023-07-31T08:43:08;20.70;76.00
37786;DHT22;23625;48.784;9.336;2023-07-31T08:45:34;21.00;80.30
37786;DHT22;23625;48.784;9.336;2023-07-31T08:47:59;21.40;78.40
37786;DHT22;23625;48.784;9.336;2023-07-31T08:50:25;21.50;73.00
37786;DHT22;23625;48.784;9.336;2023-07-31T08:52:52;21.40;73.50
37786;DHT22;23625;48.784;9.336;2023-07-31T08:55:18;21.40;73.40
37786;DHT22;23625;48.784;9.336;2023-07-31T08:57:51;21.60;72.70
37786;DHT22;23625;48.784;9.336;2023-07-31T09:00:18;21.80;72.00
37786;DHT22;23625;48.784;9.336;2023-07-31T09:02:52;22.00;68.90
37786;DHT22;23625;48.784;9.336;2023-07-31T09:05:19;22.20;69.80
37786;DHT22;23625;48.784;9.336;2023-07-31T09:07:47;22.50;70.10
37786;DHT22;23625;48.784;9.336;2023-07-31T09:10:14;22.80;68.10
37786;DHT22;23625;48.784;9.336;2023-07-31T09:12:40;23.00;66.00
37786;DHT22;23625;48.784;9.336;2023-07-31T09:15:06;23.00;66.80
37786;DHT22;23625;48.784;9.336;2023-07-31T09:17:36;23.20;65.90
37786;DHT22;23625;48.784;9.336;2023-07-31T09:22:38;23.90;65.00
37786;DHT22;23625;48.784;9.336;2023-07-31T09:30:17;23.60;61.60
37786;DHT22;23625;48.784;9.336;2023-07-31T09:32:44;23.30;63.10
37786;DHT22;23625;48.784;9.336;2023-07-31T09:35:22;23.10;64.30
37786;DHT22;23625;48.784;9.336;2023-07-31T09:37:52;22.90;64.80
37786;DHT22;23625;48.784;9.336;2023-07-31T09:40:31;22.60;65.30
37786;DHT22;23625;48.784;9.336;2023-07-31T09:42:59;22.50;66.20
37786;DHT22;23625;48.784;9.336;2023-07-31T09:45:25;22.30;67.20
37786;DHT22;23625;48.784;9.336;2023-07-31T09:47:51;22.30;66.90
37786;DHT22;23625;48.784;9.336;2023-07-31T09:50:19;22.30;66.20
37786;DHT22;23625;48.784;9.336;2023-07-31T09:52:45;22.10;67.10
37786;DHT22;23625;48.784;9.336;2023-07-31T09:55:11;22.10;67.00
37786;DHT22;23625;48.784;9.336;2023-07-31T09:57:40;22.20;67.90
37786;DHT22;23625;48.784;9.336;2023-07-31T10:00:07;22.30;68.90
37786;DHT22;23625;48.784;9.336;2023-07-31T10:02:35;22.30;68.40
37786;DHT22;23625;48.784;9.336;2023-07-31T10:05:03;22.30;68.50
37786;DHT22;23625;48.784;9.336;2023-07-31T10:07:30;22.50;68.20
37786;DHT22;23625;48.784;9.336;2023-07-31T10:10:00;22.50;66.70
37786;DHT22;23625;48.784;9.336;2023-07-31T10:12:27;22.60;65.30
37786;DHT22;23625;48.784;9.336;2023-07-31T10:14:56;22.50;66.20
37786;DHT22;23625;48.784;9.336;2023-07-31T10:17:22;22.20;66.30
37786;DHT22;23625;48.784;9.336;2023-07-31T10:19:49;22.10;68.30
37786;DHT22;23625;48.784;9.336;2023-07-31T10:22:15;22.00;67.80
37786;DHT22;23625;48.784;9.336;2023-07-31T10:24:45;22.00;69.50
37786;DHT22;23625;48.784;9.336;2023-07-31T10:27:11;22.30;67.10
37786;DHT22;23625;48.784;9.336;2023-07-31T10:29:38;22.20;69.40
37786;DHT22;23625;48.784;9.336;2023-07-31T10:32:04;22.40;70.20
37786;DHT22;23625;48.784;9.336;2023-07-31T10:34:36;22.60;67.60
37786;DHT22;23625;48.784;9.336;2023-07-31T10:45:14;22.80;68.50
37786;DHT22;23625;48.784;9.336;2023-07-31T10:47:44;22.80;66.50
37786;DHT22;23625;48.784;9.336;2023-07-31T10:50:13;22.70;64.10
37786;DHT22;23625;48.784;9.336;2023-07-31T10:52:44;22.90;64.50
37786;DHT22;23625;48.784;9.336;2023-07-31T10:55:38;23.00;63.70
37786;DHT22;23625;48.784;9.336;2023-07-31T10:58:10;22.90;62.70
37786;DHT22;23625;48.784;9.336;2023-07-31T11:00:41;22.90;63.60
37786;DHT22;23625;48.784;9.336;2023-07-31T11:03:09;22.80;63.30
37786;DHT22;23625;48.784;9.336;2023-07-31T11:08:16;23.00;65.30
37786;DHT22;23625;48.784;9.336;2023-07-31T11:10:44;23.00;64.50
37786;DHT22;23625;48.784;9.336;2023-07-31T11:13:10;23.20;64.90
37786;DHT22;23625;48.784;9.336;2023-07-31T11:15:35;23.60;63.40
37786;DHT22;23625;48.784;9.336;2023-07-31T11:18:02;23.90;62.50
37786;DHT22;23625;48.784;9.336;2023-07-31T11:20:36;24.00;62.40
37786;DHT22;23625;48.784;9.336;2023-07-31T11:23:04;24.10;60.50
37786;DHT22;23625;48.784;9.336;2023-07-31T11:25:31;24.10;61.00
37786;DHT22;23625;48.784;9.336;2023-07-31T11:28:02;24.00;60.20
37786;DHT22;23625;48.784;9.336;2023-07-31T11:30:28;24.10;60.10
37786;DHT22;23625;48.784;9.336;2023-07-31T11:32:55;24.10;59.50
37786;DHT22;23625;48.784;9.336;2023-07-31T11:35:21;24.00;60.20
37786;DHT22;23625;48.784;9.336;2023-07-31T11:37:48;23.90;60.80
37786;DHT22;23625;48.784;9.336;2023-07-31T11:40:14;24.00;61.10
37786;DHT22;23625;48.784;9.336;2023-07-31T11:42:40;24.00;60.10
37786;DHT22;23625;48.784;9.336;2023-07-31T11:45:07;23.90;60.20
37786;DHT22;23625;48.784;9.336;2023-07-31T11:47:34;23.70;60.30
37786;DHT22;23625;48.784;9.336;2023-07-31T11:50:04;23.40;60.20
37786;DHT22;23625;48.784;9.336;2023-07-31T11:52:37;23.20;61.30
37786;DHT22;23625;48.784;9.336;2023-07-31T11:55:04;23.10;61.70
37786;DHT22;23625;48.784;9.336;2023-07-31T11:57:30;23.00;61.90
37786;DHT22;23625;48.784;9.336;2023-07-31T11:59:56;22.90;61.90
37786;DHT22;23625;48.784;9.336;2023-07-31T12:02:22;22.80;62.80
37786;DHT22;23625;48.784;9.336;2023-07-31T12:04:48;22.80;64.50
37786;DHT22;23625;48.784;9.336;2023-07-31T12:07:14;22.80;63.40
37786;DHT22;23625;48.784;9.336;2023-07-31T12:09:54;22.90;62.80
37786;DHT22;23625;48.784;9.336;2023-07-31T12:12:21;22.90;62.90
37786;DHT22;23625;48.784;9.336;2023-07-31T12:14:47;22.90;63.80
37786;DHT22;23625;48.784;9.336;2023-07-31T12:17:14;22.90;64.00
37786;DHT22;23625;48.784;9.336;2023-07-31T12:19:40;23.00;64.40
37786;DHT22;23625;48.784;9.336;2023-07-31T12:22:14;23.00;64.00
37786;DHT22;23625;48.784;9.336;2023-07-31T12:24:44;23.00;65.60
37786;DHT22;23625;48.784;9.336;2023-07-31T12:27:13;23.00;64.80
37786;DHT22;23625;48.784;9.336;2023-07-31T12:29:41;22.90;64.80
37786;DHT22;23625;48.784;9.336;2023-07-31T12:32:21;22.90;64.70
37786;DHT22;23625;48.784;9.336;2023-07-31T12:34:46;22.90;64.30
37786;DHT22;23625;48.784;9.336;2023-07-31T12:37:12;23.00;64.30
37786;DHT22;23625;48.784;9.336;2023-07-31T12:39:38;23.00;64.90
37786;DHT22;23625;48.784;9.336;2023-07-31T12:42:04;22.90;64.70
37786;DHT22;23625;48.784;9.336;2023-07-31T12:44:29;22.90;64.40
37786;DHT22;23625;48.784;9.336;2023-07-31T12:46:55;22.90;64.80
37786;DHT22;23625;48.784;9.336;2023-07-31T12:49:20;22.90;65.90
37786;DHT22;23625;48.784;9.336;2023-07-31T12:51:46;22.90;66.90
37786;DHT22;23625;48.784;9.336;2023-07-31T12:54:12;22.90;65.80
37786;DHT22;23625;48.784;9.336;2023-07-31T12:56:38;22.80;65.90
37786;DHT22;23625;48.784;9.336;2023-07-31T12:59:03;23.00;65.10
37786;DHT22;23625;48.784;9.336;2023-07-31T13:01:29;22.90;64.60
37786;DHT22;23625;48.784;9.336;2023-07-31T13:03:54;22.70;65.10
37786;DHT22;23625;48.784;9.336;2023-07-31T13:06:20;22.60;66.50
37786;DHT22;23625;48.784;9.336;2023-07-31T13:08:45;22.60;67.90
37786;DHT22;23625;48.784;9.336;2023-07-31T13:11:11;22.60;69.60
37786;DHT22;23625;48.784;9.336;2023-07-31T13:13:37;22.70;70.00
37786;DHT22;23625;48.784;9.336;2023-07-31T13:16:02;22.70;70.20
37786;DHT22;23625;48.784;9.336;2023-07-31T13:18:28;22.70;68.60
37786;DHT22;23625;48.784;9.336;2023-07-31T13:20:54;22.70;67.60
37786;DHT22;23625;48.784;9.336;2023-07-31T13:23:19;22.80;65.80
37786;DHT22;23625;48.784;9.336;2023-07-31T13:25:45;22.70;67.70
37786;DHT22;23625;48.784;9.336;2023-07-31T13:28:10;22.60;68.10
37786;DHT22;23625;48.784;9.336;2023-07-31T13:30:36;22.60;69.20
37786;DHT22;23625;48.784;9.336;2023-07-31T13:33:02;22.70;67.00
37786;DHT22;23625;48.784;9.336;2023-07-31T13:35:27;22.60;67.30
37786;DHT22;23625;48.784;9.336;2023-07-31T13:37:53;22.70;67.70
37786;DHT22;23625;48.784;9.336;2023-07-31T13:40:19;22.60;68.40
37786;DHT22;23625;48.784;9.336;2023-07-31T13:42:44;22.80;67.00
37786;DHT22;23625;48.784;9.336;2023-07-31T13:45:12;22.90;68.00
37786;DHT22;23625;48.784;9.336;2023-07-31T13:47:37;23.00;67.90
37786;DHT22;23625;48.784;9.336;2023-07-31T13:50:03;23.10;65.80
37786;DHT22;23625;48.784;9.336;2023-07-31T13:52:29;23.30;65.60
37786;DHT22;23625;48.784;9.336;2023-07-31T13:54:54;23.20;65.30
37786;DHT22;23625;48.784;9.336;2023-07-31T13:57:20;23.20;63.50
37786;DHT22;23625;48.784;9.336;2023-07-31T13:59:45;23.10;62.90
37786;DHT22;23625;48.784;9.336;2023-07-31T14:02:11;23.10;63.40
37786;DHT22;23625;48.784;9.336;2023-07-31T14:04:37;23.10;64.50
37786;DHT22;23625;48.784;9.336;2023-07-31T14:07:02;23.20;64.20
37786;DHT22;23625;48.784;9.336;2023-07-31T14:09:29;23.30;65.10
37786;DHT22;23625;48.784;9.336;2023-07-31T14:11:55;23.40;65.60
37786;DHT22;23625;48.784;9.336;2023-07-31T14:14:21;23.50;65.00
37786;DHT22;23625;48.784;9.336;2023-07-31T14:16:46;23.50;65.30
37786;DHT22;23625;48.784;9.336;2023-07-31T14:19:12;23.50;64.40
37786;DHT22;23625;48.784;9.336;2023-07-31T14:21:37;23.60;64.60
37786;DHT22;23625;48.784;9.336;2023-07-31T14:24:03;23.60;65.00
37786;DHT22;23625;48.784;9.336;2023-07-31T14:26:29;23.50;65.90
37786;DHT22;23625;48.784;9.336;2023-07-31T14:28:54;23.50;66.60
37786;DHT22;23625;48.784;9.336;2023-07-31T14:31:20;23.50;65.90
37786;DHT22;23625;48.784;9.336;2023-07-31T14:33:46;23.50;65.10
37786;DHT22;23625;48.784;9.336;2023-07-31T14:36:11;23.50;66.00
37786;DHT22;23625;48.784;9.336;2023-07-31T14:38:37;23.50;67.10
37786;DHT22;23625;48.784;9.336;2023-07-31T14:41:02;23.50;66.90
37786;DHT22;23625;48.784;9.336;2023-07-31T14:43:28;23.60;66.20
37786;DHT22;23625;48.784;9.336;2023-07-31T14:45:54;23.70;65.20
37786;DHT22;23625;48.784;9.336;2023-07-31T14:48:23;23.60;65.60
37786;DHT22;23625;48.784;9.336;2023-07-31T14:50:48;23.60;65.30
37786;DHT22;23625;48.784;9.336;2023-07-31T14:53:14;23.60;66.20
37786;DHT22;23625;48.784;9.336;2023-07-31T14:55:39;23.50;66.70
37786;DHT22;23625;48.784;9.336;2023-07-31T14:58:05;23.60;67.50
37786;DHT22;23625;48.784;9.336;2023-07-31T15:00:30;23.80;68.30
37786;DHT22;23625;48.784;9.336;2023-07-31T15:02:56;23.90;66.80
37786;DHT22;23625;48.784;9.336;2023-07-31T15:05:22;23.80;66.40
37786;DHT22;23625;48.784;9.336;2023-07-31T15:07:47;23.90;66.00
37786;DHT22;23625;48.784;9.336;2023-07-31T15:10:13;23.90;67.70
37786;DHT22;23625;48.784;9.336;2023-07-31T15:12:40;23.90;65.60
37786;DHT22;23625;48.784;9.336;2023-07-31T15:15:07;23.90;67.00
37786;DHT22;23625;48.784;9.336;2023-07-31T15:17:33;24.10;65.80
37786;DHT22;23625;48.784;9.336;2023-07-31T15:19:58;24.20;63.70
37786;DHT22;23625;48.784;9.336;2023-07-31T15:22:24;24.40;62.60
37786;DHT22;23625;48.784;9.336;2023-07-31T15:24:50;24.30;63.30
37786;DHT22;23625;48.784;9.336;2023-07-31T15:27:15;24.40;62.40
37786;DHT22;23625;48.784;9.336;2023-07-31T15:29:41;24.40;62.90
37786;DHT22;23625;48.784;9.336;2023-07-31T15:32:07;24.30;63.50
37786;DHT22;23625;48.784;9.336;2023-07-31T15:34:32;24.20;63.40
37786;DHT22;23625;48.784;9.336;2023-07-31T15:36:58;24.10;63.50
37786;DHT22;23625;48.784;9.336;2023-07-31T15:39:24;24.10;63.90
37786;DHT22;23625;48.784;9.336;2023-07-31T15:41:50;23.90;64.00
37786;DHT22;23625;48.784;9.336;2023-07-31T15:44:15;23.90;65.10
37786;DHT22;23625;48.784;9.336;2023-07-31T15:46:41;23.90;64.30